sensor_id;sensor_type;location;lat;lon;timestamp;P1;durP1;ratioP1;P2;durP2;ratioP2
19038;SDS011;9652;49.014;12.052;2023-07-24T00:01:28;6.07;;;3.43;;
19038;SDS011;9652;49.014;12.052;2023-07-24T00:03:55;6.33;;;3.90;;
19038;SDS011;9652;49.014;12.052;2023-07-24T00:06:24;7.07;;;4.60;;
19038;SDS011;9652;49.014;12.052;2023-07-24T00:08:51;6.50;;;4.00;;
19038;SDS011;9652;49.014;12.052;2023-07-24T00:11:19;5.63;;;3.97;;
19038;SDS011;9652;49.014;12.052;2023-07-24T00:13:46;6.13;;;3.53;;
19038;SDS011;9652;49.014;12.052;2023-07-24T00:16:13;6.40;;;3.97;;
19038;SDS011;9652;49.014;12.052;2023-07-24T00:18:40;5.60;;;3.33;;
19038;SDS011;9652;49.014;12.052;2023-07-24T00:21:07;6.37;;;3.97;;
19038;SDS011;9652;49.014;12.052;2023-07-24T00:23:36;7.53;;;4.10;;
19038;SDS011;9652;49.014;12.052;2023-07-24T00:26:03;8.07;;;4.87;;
19038;SDS011;9652;49.014;12.052;2023-07-24T00:28:32;9.60;;;5.40;;
19038;SDS011;9652;49.014;12.052;2023-07-24T00:30:59;7.30;;;4.73;;
19038;SDS011;9652;49.014;12.052;2023-07-24T00:33:26;6.70;;;4.27;;
19038;SDS011;9652;49.014;12.052;2023-07-24T00:35:54;6.77;;;4.83;;
19038;SDS011;9652;49.014;12.052;2023-07-24T00:38:22;6.30;;;4.37;;
19038;SDS011;9652;49.014;12.052;2023-07-24T00:40:50;6.07;;;3.97;;
19038;SDS011;9652;49.014;12.052;2023-07-24T00:43:17;5.97;;;3.97;;
19038;SDS011;9652;49.014;12.052;2023-07-24T00:45:45;8.43;;;3.97;;
19038;SDS011;9652;49.014;12.052;2023-07-24T00:48:14;7.37;;;4.50;;
19038;SDS011;9652;49.014;12.052;2023-07-24T00:50:41;9.53;;;4.50;;
19038;SDS011;9652;49.014;12.052;2023-07-24T00:53:10;6.67;;;4.10;;
19038;SDS011;9652;49.014;12.052;2023-07-24T00:55:40;5.63;;;3.90;;
19038;SDS011;9652;49.014;12.052;2023-07-24T00:58:08;6.37;;;4.20;;
19038;SDS011;9652;49.014;12.052;2023-07-24T01:00:37;7.80;;;4.03;;
19038;SDS011;9652;49.014;12.052;2023-07-24T01:03:08;5.57;;;4.03;;
19038;SDS011;9652;49.014;12.052;2023-07-24T01:05:37;7.37;;;3.87;;
19038;SDS011;9652;49.014;12.052;2023-07-24T01:08:06;6.70;;;4.07;;
19038;SDS011;9652;49.014;12.052;2023-07-24T01:10:33;7.23;;;4.77;;
19038;SDS011;9652;49.014;12.052;2023-07-24T01:13:02;7.43;;;4.83;;
19038;SDS011;9652;49.014;12.052;2023-07-24T01:15:42;8.40;;;5.07;;
19038;SDS011;9652;49.014;12.052;2023-07-24T01:18:16;8.90;;;5.20;;
19038;SDS011;9652;49.014;12.052;2023-07-24T01:20:50;7.60;;;4.67;;
19038;SDS011;9652;49.014;12.052;2023-07-24T01:23:23;8.43;;;4.87;;
19038;SDS011;9652;49.014;12.052;2023-07-24T01:26:05;8.60;;;4.60;;
19038;SDS011;9652;49.014;12.052;2023-07-24T01:28:34;6.30;;;4.37;;
19038;SDS011;9652;49.014;12.052;2023-07-24T01:31:01;11.80;;;5.00;;
19038;SDS011;9652;49.014;12.052;2023-07-24T01:33:28;7.90;;;5.17;;
19038;SDS011;9652;49.014;12.052;2023-07-24T01:35:57;8.40;;;4.77;;
19038;SDS011;9652;49.014;12.052;2023-07-24T01:38:26;7.90;;;4.70;;
19038;SDS011;9652;49.014;12.052;2023-07-24T01:40:56;8.93;;;5.03;;
19038;SDS011;9652;49.014;12.052;2023-07-24T01:43:26;10.53;;;4.97;;
19038;SDS011;9652;49.014;12.052;2023-07-24T01:45:54;8.97;;;4.47;;
19038;SDS011;9652;49.014;12.052;2023-07-24T01:48:21;8.60;;;4.93;;
19038;SDS011;9652;49.014;12.052;2023-07-24T01:50:48;9.00;;;4.77;;
19038;SDS011;9652;49.014;12.052;2023-07-24T01:53:16;8.03;;;3.83;;
19038;SDS011;9652;49.014;12.052;2023-07-24T01:55:43;8.00;;;4.43;;
19038;SDS011;9652;49.014;12.052;2023-07-24T01:58:09;7.73;;;4.97;;
19038;SDS011;9652;49.014;12.052;2023-07-24T02:00:38;9.73;;;4.73;;
19038;SDS011;9652;49.014;12.052;2023-07-24T02:03:05;8.03;;;4.70;;
19038;SDS011;9652;49.014;12.052;2023-07-24T02:05:32;8.97;;;5.00;;
19038;SDS011;9652;49.014;12.052;2023-07-24T02:07:59;7.30;;;4.50;;
19038;SDS011;9652;49.014;12.052;2023-07-24T02:10:26;8.80;;;4.37;;
19038;SDS011;9652;49.014;12.052;2023-07-24T02:12:53;7.30;;;4.70;;
19038;SDS011;9652;49.014;12.052;2023-07-24T02:15:20;8.73;;;4.90;;
19038;SDS011;9652;49.014;12.052;2023-07-24T02:17:49;7.50;;;4.40;;
19038;SDS011;9652;49.014;12.052;2023-07-24T02:20:16;7.50;;;4.60;;
19038;SDS011;9652;49.014;12.052;2023-07-24T02:22:43;9.50;;;4.80;;
19038;SDS011;9652;49.014;12.052;2023-07-24T02:25:10;8.17;;;4.97;;
19038;SDS011;9652;49.014;12.052;2023-07-24T02:27:37;9.37;;;4.97;;
19038;SDS011;9652;49.014;12.052;2023-07-24T02:30:05;7.50;;;4.30;;
19038;SDS011;9652;49.014;12.052;2023-07-24T02:32:34;5.93;;;3.77;;
19038;SDS011;9652;49.014;12.052;2023-07-24T02:35:02;8.13;;;3.87;;
19038;SDS011;9652;49.014;12.052;2023-07-24T02:37:31;7.13;;;4.53;;
19038;SDS011;9652;49.014;12.052;2023-07-24T02:39:58;7.23;;;4.43;;
19038;SDS011;9652;49.014;12.052;2023-07-24T02:42:26;8.33;;;5.13;;
19038;SDS011;9652;49.014;12.052;2023-07-24T02:44:53;7.40;;;4.77;;
19038;SDS011;9652;49.014;12.052;2023-07-24T02:47:20;6.17;;;3.93;;
19038;SDS011;9652;49.014;12.052;2023-07-24T02:49:47;7.00;;;4.47;;
19038;SDS011;9652;49.014;12.052;2023-07-24T02:52:16;8.47;;;4.70;;
19038;SDS011;9652;49.014;12.052;2023-07-24T02:54:43;8.43;;;4.63;;
19038;SDS011;9652;49.014;12.052;2023-07-24T02:57:10;8.50;;;4.30;;
19038;SDS011;9652;49.014;12.052;2023-07-24T02:59:37;8.37;;;4.77;;
19038;SDS011;9652;49.014;12.052;2023-07-24T03:02:04;6.80;;;4.33;;
19038;SDS011;9652;49.014;12.052;2023-07-24T03:04:31;8.03;;;4.73;;
19038;SDS011;9652;49.014;12.052;2023-07-24T03:06:58;7.40;;;4.73;;
19038;SDS011;9652;49.014;12.052;2023-07-24T03:09:27;7.37;;;4.70;;
19038;SDS011;9652;49.014;12.052;2023-07-24T03:11:54;6.97;;;4.20;;
19038;SDS011;9652;49.014;12.052;2023-07-24T03:14:23;7.17;;;4.47;;
19038;SDS011;9652;49.014;12.052;2023-07-24T03:16:51;9.53;;;4.93;;
19038;SDS011;9652;49.014;12.052;2023-07-24T03:19:18;10.07;;;4.80;;
19038;SDS011;9652;49.014;12.052;2023-07-24T03:21:45;7.53;;;4.57;;
19038;SDS011;9652;49.014;12.052;2023-07-24T03:24:12;7.53;;;4.70;;
19038;SDS011;9652;49.014;12.052;2023-07-24T03:26:40;6.40;;;3.90;;
19038;SDS011;9652;49.014;12.052;2023-07-24T03:29:08;7.43;;;4.17;;
19038;SDS011;9652;49.014;12.052;2023-07-24T03:31:35;8.13;;;4.80;;
19038;SDS011;9652;49.014;12.052;2023-07-24T03:34:02;7.67;;;5.20;;
19038;SDS011;9652;49.014;12.052;2023-07-24T03:36:29;6.83;;;4.87;;
19038;SDS011;9652;49.014;12.052;2023-07-24T03:38:56;9.63;;;4.93;;
19038;SDS011;9652;49.014;12.052;2023-07-24T03:41:23;8.77;;;4.40;;
19038;SDS011;9652;49.014;12.052;2023-07-24T03:43:55;7.57;;;4.67;;
19038;SDS011;9652;49.014;12.052;2023-07-24T03:46:22;6.67;;;4.60;;
19038;SDS011;9652;49.014;12.052;2023-07-24T03:48:49;6.77;;;4.73;;
19038;SDS011;9652;49.014;12.052;2023-07-24T03:51:16;5.30;;;3.70;;
19038;SDS011;9652;49.014;12.052;2023-07-24T03:53:43;7.00;;;4.57;;
19038;SDS011;9652;49.014;12.052;2023-07-24T03:56:11;9.50;;;5.30;;
19038;SDS011;9652;49.014;12.052;2023-07-24T03:58:38;7.93;;;4.50;;
19038;SDS011;9652;49.014;12.052;2023-07-24T04:01:06;8.23;;;5.37;;
19038;SDS011;9652;49.014;12.052;2023-07-24T04:03:34;11.70;;;4.67;;
19038;SDS011;9652;49.014;12.052;2023-07-24T04:06:02;8.87;;;4.60;;
19038;SDS011;9652;49.014;12.052;2023-07-24T04:08:29;8.30;;;4.83;;
19038;SDS011;9652;49.014;12.052;2023-07-24T04:10:56;8.97;;;4.57;;
19038;SDS011;9652;49.014;12.052;2023-07-24T04:13:23;8.87;;;4.97;;
19038;SDS011;9652;49.014;12.052;2023-07-24T04:15:50;8.83;;;5.10;;
19038;SDS011;9652;49.014;12.052;2023-07-24T04:18:19;8.30;;;4.63;;
19038;SDS011;9652;49.014;12.052;2023-07-24T04:20:46;7.83;;;4.60;;
19038;SDS011;9652;49.014;12.052;2023-07-24T04:23:13;7.73;;;4.73;;
19038;SDS011;9652;49.014;12.052;2023-07-24T04:25:40;6.77;;;4.17;;
19038;SDS011;9652;49.014;12.052;2023-07-24T04:28:07;9.70;;;5.17;;
19038;SDS011;9652;49.014;12.052;2023-07-24T04:30:34;8.50;;;4.63;;
19038;SDS011;9652;49.014;12.052;2023-07-24T04:33:01;7.73;;;5.17;;
19038;SDS011;9652;49.014;12.052;2023-07-24T04:35:30;8.17;;;4.67;;
19038;SDS011;9652;49.014;12.052;2023-07-24T04:37:57;7.57;;;4.67;;
19038;SDS011;9652;49.014;12.052;2023-07-24T04:40:24;9.93;;;5.00;;
19038;SDS011;9652;49.014;12.052;2023-07-24T04:42:51;8.17;;;4.90;;
19038;SDS011;9652;49.014;12.052;2023-07-24T04:45:18;6.60;;;4.63;;
19038;SDS011;9652;49.014;12.052;2023-07-24T04:47:45;6.40;;;4.37;;
19038;SDS011;9652;49.014;12.052;2023-07-24T04:50:12;7.97;;;4.83;;
19038;SDS011;9652;49.014;12.052;2023-07-24T04:52:41;7.20;;;4.63;;
19038;SDS011;9652;49.014;12.052;2023-07-24T04:55:08;9.23;;;4.90;;
19038;SDS011;9652;49.014;12.052;2023-07-24T04:57:35;9.67;;;5.10;;
19038;SDS011;9652;49.014;12.052;2023-07-24T05:00:02;9.33;;;5.40;;
19038;SDS011;9652;49.014;12.052;2023-07-24T05:02:31;7.87;;;5.00;;
19038;SDS011;9652;49.014;12.052;2023-07-24T05:04:58;7.10;;;4.60;;
19038;SDS011;9652;49.014;12.052;2023-07-24T05:07:25;7.90;;;4.60;;
19038;SDS011;9652;49.014;12.052;2023-07-24T05:09:53;10.50;;;4.73;;
19038;SDS011;9652;49.014;12.052;2023-07-24T05:12:20;8.53;;;4.10;;
19038;SDS011;9652;49.014;12.052;2023-07-24T05:14:48;8.23;;;5.20;;
19038;SDS011;9652;49.014;12.052;2023-07-24T05:17:15;8.27;;;4.60;;
19038;SDS011;9652;49.014;12.052;2023-07-24T05:19:42;7.87;;;4.83;;
19038;SDS011;9652;49.014;12.052;2023-07-24T05:22:09;8.13;;;5.13;;
19038;SDS011;9652;49.014;12.052;2023-07-24T05:24:36;8.93;;;4.77;;
19038;SDS011;9652;49.014;12.052;2023-07-24T05:27:05;9.23;;;5.60;;
19038;SDS011;9652;49.014;12.052;2023-07-24T05:29:32;7.30;;;4.67;;
19038;SDS011;9652;49.014;12.052;2023-07-24T05:31:59;8.90;;;5.07;;
19038;SDS011;9652;49.014;12.052;2023-07-24T05:34:27;8.83;;;5.53;;
19038;SDS011;9652;49.014;12.052;2023-07-24T05:36:54;7.27;;;4.40;;
19038;SDS011;9652;49.014;12.052;2023-07-24T05:39:21;8.10;;;4.67;;
19038;SDS011;9652;49.014;12.052;2023-07-24T05:41:48;7.57;;;4.70;;
19038;SDS011;9652;49.014;12.052;2023-07-24T05:44:16;8.57;;;4.97;;
19038;SDS011;9652;49.014;12.052;2023-07-24T05:46:43;9.83;;;4.97;;
19038;SDS011;9652;49.014;12.052;2023-07-24T05:49:10;9.87;;;5.00;;
19038;SDS011;9652;49.014;12.052;2023-07-24T05:51:37;10.53;;;4.73;;
19038;SDS011;9652;49.014;12.052;2023-07-24T05:54:04;8.43;;;4.80;;
19038;SDS011;9652;49.014;12.052;2023-07-24T05:56:31;8.37;;;4.97;;
19038;SDS011;9652;49.014;12.052;2023-07-24T05:58:58;7.90;;;4.70;;
19038;SDS011;9652;49.014;12.052;2023-07-24T06:01:27;9.47;;;4.77;;
19038;SDS011;9652;49.014;12.052;2023-07-24T06:03:54;7.73;;;5.07;;
19038;SDS011;9652;49.014;12.052;2023-07-24T06:06:21;10.50;;;5.57;;
19038;SDS011;9652;49.014;12.052;2023-07-24T06:08:48;10.63;;;5.80;;
19038;SDS011;9652;49.014;12.052;2023-07-24T06:11:16;11.17;;;4.97;;
19038;SDS011;9652;49.014;12.052;2023-07-24T06:13:43;11.07;;;5.47;;
19038;SDS011;9652;49.014;12.052;2023-07-24T06:16:10;13.77;;;5.00;;
19038;SDS011;9652;49.014;12.052;2023-07-24T06:18:40;9.17;;;4.97;;
19038;SDS011;9652;49.014;12.052;2023-07-24T06:21:08;8.70;;;5.30;;
19038;SDS011;9652;49.014;12.052;2023-07-24T06:23:35;8.63;;;4.83;;
19038;SDS011;9652;49.014;12.052;2023-07-24T06:26:02;9.73;;;5.03;;
19038;SDS011;9652;49.014;12.052;2023-07-24T06:28:29;8.10;;;4.87;;
19038;SDS011;9652;49.014;12.052;2023-07-24T06:30:57;8.97;;;5.30;;
19038;SDS011;9652;49.014;12.052;2023-07-24T06:33:24;10.63;;;4.47;;
19038;SDS011;9652;49.014;12.052;2023-07-24T06:35:52;8.83;;;5.50;;
19038;SDS011;9652;49.014;12.052;2023-07-24T06:38:19;12.67;;;5.07;;
19038;SDS011;9652;49.014;12.052;2023-07-24T06:40:47;10.83;;;5.77;;
19038;SDS011;9652;49.014;12.052;2023-07-24T06:43:15;7.57;;;4.70;;
19038;SDS011;9652;49.014;12.052;2023-07-24T06:45:42;11.93;;;5.23;;
19038;SDS011;9652;49.014;12.052;2023-07-24T06:48:09;8.00;;;4.83;;
19038;SDS011;9652;49.014;12.052;2023-07-24T06:50:36;8.87;;;5.27;;
19038;SDS011;9652;49.014;12.052;2023-07-24T06:53:04;9.87;;;5.03;;
19038;SDS011;9652;49.014;12.052;2023-07-24T06:55:31;9.03;;;5.00;;
19038;SDS011;9652;49.014;12.052;2023-07-24T06:57:58;10.00;;;5.03;;
19038;SDS011;9652;49.014;12.052;2023-07-24T07:00:25;9.43;;;5.03;;
19038;SDS011;9652;49.014;12.052;2023-07-24T07:02:52;7.27;;;4.23;;
19038;SDS011;9652;49.014;12.052;2023-07-24T07:05:19;8.48;;;4.97;;
19038;SDS011;9652;49.014;12.052;2023-07-24T07:07:47;7.53;;;4.97;;
19038;SDS011;9652;49.014;12.052;2023-07-24T07:10:15;11.00;;;5.43;;
19038;SDS011;9652;49.014;12.052;2023-07-24T07:12:42;8.07;;;4.80;;
19038;SDS011;9652;49.014;12.052;2023-07-24T07:15:09;8.83;;;5.27;;
19038;SDS011;9652;49.014;12.052;2023-07-24T07:17:36;10.00;;;5.20;;
19038;SDS011;9652;49.014;12.052;2023-07-24T07:20:04;8.90;;;5.60;;
19038;SDS011;9652;49.014;12.052;2023-07-24T07:22:33;8.40;;;4.90;;
19038;SDS011;9652;49.014;12.052;2023-07-24T07:25:00;8.55;;;5.18;;
19038;SDS011;9652;49.014;12.052;2023-07-24T07:27:28;8.27;;;5.07;;
19038;SDS011;9652;49.014;12.052;2023-07-24T07:29:55;8.27;;;5.30;;
19038;SDS011;9652;49.014;12.052;2023-07-24T07:32:22;8.47;;;5.30;;
19038;SDS011;9652;49.014;12.052;2023-07-24T07:34:49;15.67;;;5.37;;
19038;SDS011;9652;49.014;12.052;2023-07-24T07:37:17;8.50;;;4.83;;
19038;SDS011;9652;49.014;12.052;2023-07-24T07:39:44;6.55;;;4.40;;
19038;SDS011;9652;49.014;12.052;2023-07-24T07:42:11;9.87;;;5.13;;
19038;SDS011;9652;49.014;12.052;2023-07-24T07:44:39;7.50;;;4.77;;
19038;SDS011;9652;49.014;12.052;2023-07-24T07:47:06;8.48;;;5.10;;
19038;SDS011;9652;49.014;12.052;2023-07-24T07:49:33;6.97;;;4.53;;
19038;SDS011;9652;49.014;12.052;2023-07-24T07:52:00;8.90;;;4.78;;
19038;SDS011;9652;49.014;12.052;2023-07-24T07:54:27;9.20;;;5.20;;
19038;SDS011;9652;49.014;12.052;2023-07-24T07:56:54;9.20;;;4.67;;
19038;SDS011;9652;49.014;12.052;2023-07-24T07:59:21;8.70;;;4.97;;
19038;SDS011;9652;49.014;12.052;2023-07-24T08:01:50;8.37;;;4.67;;
19038;SDS011;9652;49.014;12.052;2023-07-24T08:04:17;7.23;;;4.70;;
19038;SDS011;9652;49.014;12.052;2023-07-24T08:06:45;8.80;;;4.80;;
19038;SDS011;9652;49.014;12.052;2023-07-24T08:09:12;8.03;;;5.03;;
19038;SDS011;9652;49.014;12.052;2023-07-24T08:11:40;8.30;;;5.50;;
19038;SDS011;9652;49.014;12.052;2023-07-24T08:14:07;8.80;;;5.40;;
19038;SDS011;9652;49.014;12.052;2023-07-24T08:16:34;11.80;;;5.50;;
19038;SDS011;9652;49.014;12.052;2023-07-24T08:19:02;10.30;;;5.30;;
19038;SDS011;9652;49.014;12.052;2023-07-24T08:21:30;9.87;;;6.03;;
19038;SDS011;9652;49.014;12.052;2023-07-24T08:23:57;12.50;;;5.87;;
19038;SDS011;9652;49.014;12.052;2023-07-24T08:26:25;7.87;;;5.27;;
19038;SDS011;9652;49.014;12.052;2023-07-24T08:28:52;8.97;;;5.37;;
19038;SDS011;9652;49.014;12.052;2023-07-24T08:31:20;9.70;;;5.93;;
19038;SDS011;9652;49.014;12.052;2023-07-24T08:33:47;11.93;;;6.23;;
19038;SDS011;9652;49.014;12.052;2023-07-24T08:36:15;10.03;;;6.00;;
19038;SDS011;9652;49.014;12.052;2023-07-24T08:38:42;9.07;;;5.93;;
19038;SDS011;9652;49.014;12.052;2023-07-24T08:41:10;8.70;;;5.90;;
19038;SDS011;9652;49.014;12.052;2023-07-24T08:43:39;8.77;;;5.57;;
19038;SDS011;9652;49.014;12.052;2023-07-24T08:46:09;11.13;;;5.87;;
19038;SDS011;9652;49.014;12.052;2023-07-24T08:48:37;10.50;;;5.70;;
19038;SDS011;9652;49.014;12.052;2023-07-24T08:51:07;11.50;;;5.73;;
19038;SDS011;9652;49.014;12.052;2023-07-24T08:53:38;9.80;;;5.30;;
19038;SDS011;9652;49.014;12.052;2023-07-24T08:56:08;9.80;;;5.87;;
19038;SDS011;9652;49.014;12.052;2023-07-24T08:58:37;10.77;;;6.27;;
19038;SDS011;9652;49.014;12.052;2023-07-24T09:01:06;9.63;;;5.67;;
19038;SDS011;9652;49.014;12.052;2023-07-24T09:03:34;8.77;;;5.20;;
19038;SDS011;9652;49.014;12.052;2023-07-24T09:06:02;11.30;;;5.53;;
19038;SDS011;9652;49.014;12.052;2023-07-24T09:08:33;8.37;;;5.43;;
19038;SDS011;9652;49.014;12.052;2023-07-24T09:11:04;10.03;;;5.13;;
19038;SDS011;9652;49.014;12.052;2023-07-24T09:13:32;8.23;;;5.23;;
19038;SDS011;9652;49.014;12.052;2023-07-24T09:16:02;10.20;;;5.53;;
19038;SDS011;9652;49.014;12.052;2023-07-24T09:18:38;12.87;;;5.10;;
19038;SDS011;9652;49.014;12.052;2023-07-24T09:21:05;7.20;;;4.67;;
19038;SDS011;9652;49.014;12.052;2023-07-24T09:23:33;7.70;;;4.77;;
19038;SDS011;9652;49.014;12.052;2023-07-24T09:26:06;8.10;;;4.67;;
19038;SDS011;9652;49.014;12.052;2023-07-24T09:28:34;6.50;;;4.30;;
19038;SDS011;9652;49.014;12.052;2023-07-24T09:31:02;9.57;;;4.83;;
19038;SDS011;9652;49.014;12.052;2023-07-24T09:33:37;6.97;;;4.40;;
19038;SDS011;9652;49.014;12.052;2023-07-24T09:36:06;7.33;;;4.40;;
19038;SDS011;9652;49.014;12.052;2023-07-24T09:38:35;6.67;;;4.43;;
19038;SDS011;9652;49.014;12.052;2023-07-24T09:41:03;6.60;;;3.80;;
19038;SDS011;9652;49.014;12.052;2023-07-24T09:43:32;6.87;;;4.30;;
19038;SDS011;9652;49.014;12.052;2023-07-24T09:46:01;7.43;;;4.13;;
19038;SDS011;9652;49.014;12.052;2023-07-24T09:48:32;10.13;;;3.97;;
19038;SDS011;9652;49.014;12.052;2023-07-24T09:51:00;6.35;;;3.92;;
19038;SDS011;9652;49.014;12.052;2023-07-24T09:53:31;6.65;;;3.65;;
19038;SDS011;9652;49.014;12.052;2023-07-24T09:56:01;6.40;;;3.92;;
19038;SDS011;9652;49.014;12.052;2023-07-24T09:58:32;5.40;;;3.53;;
19038;SDS011;9652;49.014;12.052;2023-07-24T10:01:05;5.32;;;3.65;;
19038;SDS011;9652;49.014;12.052;2023-07-24T10:03:34;4.88;;;3.40;;
19038;SDS011;9652;49.014;12.052;2023-07-24T10:06:04;4.95;;;3.30;;
19038;SDS011;9652;49.014;12.052;2023-07-24T10:08:32;7.70;;;3.10;;
19038;SDS011;9652;49.014;12.052;2023-07-24T10:11:00;7.40;;;3.40;;
19038;SDS011;9652;49.014;12.052;2023-07-24T10:13:28;6.10;;;3.40;;
19038;SDS011;9652;49.014;12.052;2023-07-24T10:15:57;4.00;;;2.78;;
19038;SDS011;9652;49.014;12.052;2023-07-24T10:18:25;5.05;;;3.30;;
19038;SDS011;9652;49.014;12.052;2023-07-24T10:20:59;5.55;;;3.05;;
19038;SDS011;9652;49.014;12.052;2023-07-24T10:23:28;6.47;;;3.20;;
19038;SDS011;9652;49.014;12.052;2023-07-24T10:25:55;6.72;;;3.00;;
19038;SDS011;9652;49.014;12.052;2023-07-24T10:28:30;5.75;;;3.10;;
19038;SDS011;9652;49.014;12.052;2023-07-24T10:31:01;8.50;;;2.95;;
19038;SDS011;9652;49.014;12.052;2023-07-24T10:33:29;7.43;;;2.85;;
19038;SDS011;9652;49.014;12.052;2023-07-24T10:36:03;5.55;;;3.03;;
19038;SDS011;9652;49.014;12.052;2023-07-24T10:38:35;3.65;;;2.92;;
19038;SDS011;9652;49.014;12.052;2023-07-24T10:41:04;6.85;;;2.55;;
19038;SDS011;9652;49.014;12.052;2023-07-24T10:43:40;3.80;;;2.40;;
19038;SDS011;9652;49.014;12.052;2023-07-24T10:46:10;5.03;;;2.95;;
19038;SDS011;9652;49.014;12.052;2023-07-24T10:48:41;5.70;;;2.90;;
19038;SDS011;9652;49.014;12.052;2023-07-24T10:51:10;7.32;;;3.22;;
19038;SDS011;9652;49.014;12.052;2023-07-24T10:53:41;6.57;;;3.15;;
19038;SDS011;9652;49.014;12.052;2023-07-24T10:56:11;4.78;;;3.05;;
19038;SDS011;9652;49.014;12.052;2023-07-24T10:58:39;5.70;;;3.08;;
19038;SDS011;9652;49.014;12.052;2023-07-24T11:01:07;4.93;;;3.20;;
19038;SDS011;9652;49.014;12.052;2023-07-24T11:03:37;4.72;;;3.20;;
19038;SDS011;9652;49.014;12.052;2023-07-24T11:06:11;4.70;;;3.10;;
19038;SDS011;9652;49.014;12.052;2023-07-24T11:08:40;6.20;;;3.17;;
19038;SDS011;9652;49.014;12.052;2023-07-24T11:11:08;4.40;;;2.85;;
19038;SDS011;9652;49.014;12.052;2023-07-24T11:13:37;4.15;;;2.92;;
19038;SDS011;9652;49.014;12.052;2023-07-24T11:16:05;4.72;;;2.70;;
19038;SDS011;9652;49.014;12.052;2023-07-24T11:18:44;3.83;;;2.80;;
19038;SDS011;9652;49.014;12.052;2023-07-24T11:21:13;4.38;;;3.05;;
19038;SDS011;9652;49.014;12.052;2023-07-24T11:23:44;4.45;;;3.10;;
19038;SDS011;9652;49.014;12.052;2023-07-24T11:26:18;3.22;;;2.85;;
19038;SDS011;9652;49.014;12.052;2023-07-24T11:28:46;5.68;;;3.28;;
19038;SDS011;9652;49.014;12.052;2023-07-24T11:31:13;4.03;;;2.83;;
19038;SDS011;9652;49.014;12.052;2023-07-24T11:33:41;4.47;;;2.83;;
19038;SDS011;9652;49.014;12.052;2023-07-24T11:36:11;3.85;;;2.65;;
19038;SDS011;9652;49.014;12.052;2023-07-24T11:38:39;4.68;;;2.75;;
19038;SDS011;9652;49.014;12.052;2023-07-24T11:41:07;4.47;;;2.90;;
19038;SDS011;9652;49.014;12.052;2023-07-24T11:43:35;4.60;;;3.22;;
19038;SDS011;9652;49.014;12.052;2023-07-24T11:46:11;4.70;;;2.90;;
19038;SDS011;9652;49.014;12.052;2023-07-24T11:48:50;5.45;;;3.38;;
19038;SDS011;9652;49.014;12.052;2023-07-24T11:51:18;4.18;;;2.85;;
19038;SDS011;9652;49.014;12.052;2023-07-24T11:53:45;5.60;;;3.45;;
19038;SDS011;9652;49.014;12.052;2023-07-24T11:56:13;5.53;;;3.22;;
19038;SDS011;9652;49.014;12.052;2023-07-24T11:58:43;4.28;;;2.80;;
19038;SDS011;9652;49.014;12.052;2023-07-24T12:01:10;6.57;;;4.18;;
19038;SDS011;9652;49.014;12.052;2023-07-24T12:03:39;5.90;;;3.50;;
19038;SDS011;9652;49.014;12.052;2023-07-24T12:06:15;6.45;;;3.72;;
19038;SDS011;9652;49.014;12.052;2023-07-24T12:08:43;4.97;;;2.95;;
19038;SDS011;9652;49.014;12.052;2023-07-24T12:11:15;4.30;;;3.47;;
19038;SDS011;9652;49.014;12.052;2023-07-24T12:13:43;4.57;;;3.13;;
19038;SDS011;9652;49.014;12.052;2023-07-24T12:16:10;9.18;;;3.67;;
19038;SDS011;9652;49.014;12.052;2023-07-24T12:18:38;4.20;;;3.10;;
19038;SDS011;9652;49.014;12.052;2023-07-24T12:21:05;5.57;;;3.45;;
19038;SDS011;9652;49.014;12.052;2023-07-24T12:23:33;4.88;;;3.42;;
19038;SDS011;9652;49.014;12.052;2023-07-24T12:26:00;5.70;;;3.38;;
19038;SDS011;9652;49.014;12.052;2023-07-24T12:28:27;5.32;;;3.53;;
19038;SDS011;9652;49.014;12.052;2023-07-24T12:30:54;4.55;;;3.30;;
19038;SDS011;9652;49.014;12.052;2023-07-24T12:33:21;5.15;;;3.22;;
19038;SDS011;9652;49.014;12.052;2023-07-24T12:35:49;5.63;;;3.78;;
19038;SDS011;9652;49.014;12.052;2023-07-24T12:38:16;5.03;;;3.70;;
19038;SDS011;9652;49.014;12.052;2023-07-24T12:40:45;5.40;;;3.40;;
19038;SDS011;9652;49.014;12.052;2023-07-24T12:43:12;5.78;;;3.60;;
19038;SDS011;9652;49.014;12.052;2023-07-24T12:45:41;4.72;;;2.95;;
19038;SDS011;9652;49.014;12.052;2023-07-24T12:48:08;6.63;;;3.60;;
19038;SDS011;9652;49.014;12.052;2023-07-24T12:50:36;8.52;;;3.90;;
19038;SDS011;9652;49.014;12.052;2023-07-24T12:53:03;6.50;;;4.30;;
19038;SDS011;9652;49.014;12.052;2023-07-24T12:55:30;8.82;;;4.60;;
19038;SDS011;9652;49.014;12.052;2023-07-24T12:57:59;5.85;;;4.45;;
19038;SDS011;9652;49.014;12.052;2023-07-24T13:00:27;8.77;;;4.57;;
19038;SDS011;9652;49.014;12.052;2023-07-24T13:02:55;5.60;;;4.20;;
19038;SDS011;9652;49.014;12.052;2023-07-24T13:05:22;6.30;;;4.10;;
19038;SDS011;9652;49.014;12.052;2023-07-24T13:07:50;8.60;;;4.63;;
19038;SDS011;9652;49.014;12.052;2023-07-24T13:10:17;6.27;;;4.07;;
19038;SDS011;9652;49.014;12.052;2023-07-24T13:12:45;6.10;;;4.40;;
19038;SDS011;9652;49.014;12.052;2023-07-24T13:15:14;6.60;;;4.13;;
19038;SDS011;9652;49.014;12.052;2023-07-24T13:17:41;6.33;;;4.33;;
19038;SDS011;9652;49.014;12.052;2023-07-24T13:20:09;7.27;;;4.83;;
19038;SDS011;9652;49.014;12.052;2023-07-24T13:22:37;7.23;;;4.37;;
19038;SDS011;9652;49.014;12.052;2023-07-24T13:25:05;5.07;;;3.90;;
19038;SDS011;9652;49.014;12.052;2023-07-24T13:27:33;6.83;;;4.23;;
19038;SDS011;9652;49.014;12.052;2023-07-24T13:30:00;5.87;;;4.47;;
19038;SDS011;9652;49.014;12.052;2023-07-24T13:32:28;7.60;;;4.80;;
19038;SDS011;9652;49.014;12.052;2023-07-24T13:34:56;7.03;;;4.63;;
19038;SDS011;9652;49.014;12.052;2023-07-24T13:37:24;9.50;;;5.60;;
19038;SDS011;9652;49.014;12.052;2023-07-24T13:39:51;8.33;;;5.23;;
19038;SDS011;9652;49.014;12.052;2023-07-24T13:42:21;6.80;;;4.30;;
19038;SDS011;9652;49.014;12.052;2023-07-24T13:44:48;7.93;;;4.07;;
19038;SDS011;9652;49.014;12.052;2023-07-24T13:47:16;6.03;;;4.50;;
19038;SDS011;9652;49.014;12.052;2023-07-24T13:49:44;6.57;;;4.03;;
19038;SDS011;9652;49.014;12.052;2023-07-24T13:52:11;5.40;;;3.77;;
19038;SDS011;9652;49.014;12.052;2023-07-24T13:54:38;5.60;;;4.20;;
19038;SDS011;9652;49.014;12.052;2023-07-24T13:57:05;8.20;;;4.20;;
19038;SDS011;9652;49.014;12.052;2023-07-24T13:59:33;5.70;;;3.73;;
19038;SDS011;9652;49.014;12.052;2023-07-24T14:02:01;8.27;;;3.93;;
19038;SDS011;9652;49.014;12.052;2023-07-24T14:04:28;8.57;;;4.17;;
19038;SDS011;9652;49.014;12.052;2023-07-24T14:06:56;6.40;;;3.80;;
19038;SDS011;9652;49.014;12.052;2023-07-24T14:09:24;5.67;;;3.90;;
19038;SDS011;9652;49.014;12.052;2023-07-24T14:11:51;4.80;;;3.57;;
19038;SDS011;9652;49.014;12.052;2023-07-24T14:14:18;5.10;;;3.53;;
19038;SDS011;9652;49.014;12.052;2023-07-24T14:16:45;6.03;;;3.90;;
19038;SDS011;9652;49.014;12.052;2023-07-24T14:19:12;4.80;;;3.10;;
19038;SDS011;9652;49.014;12.052;2023-07-24T14:21:40;6.78;;;4.10;;
19038;SDS011;9652;49.014;12.052;2023-07-24T14:24:08;6.13;;;3.78;;
19038;SDS011;9652;49.014;12.052;2023-07-24T14:26:35;7.38;;;4.70;;
19038;SDS011;9652;49.014;12.052;2023-07-24T14:29:03;7.47;;;4.18;;
19038;SDS011;9652;49.014;12.052;2023-07-24T14:31:30;6.35;;;3.78;;
19038;SDS011;9652;49.014;12.052;2023-07-24T14:34:00;5.63;;;3.60;;
19038;SDS011;9652;49.014;12.052;2023-07-24T14:36:27;5.85;;;3.58;;
19038;SDS011;9652;49.014;12.052;2023-07-24T14:38:59;6.53;;;3.92;;
19038;SDS011;9652;49.014;12.052;2023-07-24T14:41:27;6.55;;;4.07;;
19038;SDS011;9652;49.014;12.052;2023-07-24T14:43:55;5.78;;;3.30;;
19038;SDS011;9652;49.014;12.052;2023-07-24T14:46:22;4.88;;;3.38;;
19038;SDS011;9652;49.014;12.052;2023-07-24T14:48:49;4.95;;;3.25;;
19038;SDS011;9652;49.014;12.052;2023-07-24T14:51:16;5.03;;;3.63;;